Accueil
METAR-TAF:

METAR-TAF

Aéroports :

Delta, Utah, États-Unis

latitude: 39-22-50N, longitude: 112-30-28W, altitude: 1451 m

Observation

Le bulletin a été fait il y a 1 heure et 7 minutes, à 23:35 UTC
Vent 9 kt de est/nord-est
Température 24°C
Humidité 19%
Pression 1022 hPa
Visibilité: 16.1 km
Ciel clair

METAR: KDTA 052335Z AUTO 06009KT 10SM CLR 24/M01 A3019 RMK AO1

Heure: 18:42 (00:42 UTC)


TAF: absent

Observations et prévisions météorologiques de plus de 4000 aéroports (messages METAR et TAF).

Les stations disponibles sont représentées par des disques jaunes et rouges sur la carte.

Passer la souris dessus pour voir le nom de la station.

Cliquer dessus pour voir les observations et prévisions météorologiques.

Pour changer de carte: cliquez sur les boutons verts avec une croix noire pour zoomer, sur le bouton vert avec un tiret pour effectuer un zoom arrière, ou sur les flèches vertes pour les cartes adjacentes.


METAR-TAF: